createdAt,value
2018-03-06T00:01:10.275Z,585.97
2018-03-06T00:03:37.732Z,593.47
2018-03-06T00:06:05.191Z,497.90
2018-03-06T00:08:32.649Z,592.90
2018-03-06T00:11:00.096Z,497.63
2018-03-06T00:13:27.551Z,477.23
2018-03-06T00:15:55.780Z,592.35
2018-03-06T00:18:24.045Z,495.98
2018-03-06T00:20:51.495Z,495.10
2018-03-06T00:23:18.955Z,495.23
2018-03-06T00:25:46.455Z,478.33
2018-03-06T00:28:13.902Z,477.52
2018-03-06T00:30:41.354Z,481.35
2018-03-06T00:33:08.827Z,473.80
2018-03-06T00:35:36.272Z,475.55
2018-03-06T00:38:03.727Z,492.12
2018-03-06T00:40:31.180Z,589.25
2018-03-06T00:42:59.592Z,589.17
2018-03-06T00:45:27.061Z,588.47
2018-03-06T00:47:54.519Z,478.38
2018-03-06T00:50:21.972Z,585.63
2018-03-06T00:52:49.418Z,424.15
2018-03-06T00:55:16.881Z,479.23
2018-03-06T00:57:44.324Z,588.53
2018-03-06T01:00:12.575Z,587.08
2018-03-06T01:02:40.796Z,609.17
2018-03-06T01:05:08.267Z,585.70
2018-03-06T01:07:35.719Z,585.75
2018-03-06T01:10:03.186Z,495.67
2018-03-06T01:12:30.660Z,476.23
2018-03-06T01:14:58.118Z,476.05
2018-03-06T01:17:25.566Z,586.17
2018-03-06T01:19:53.020Z,588.85
2018-03-06T01:22:20.488Z,470.23
2018-03-06T01:24:47.955Z,489.70
2018-03-06T01:27:15.411Z,490.25
2018-03-06T01:29:42.906Z,490.65
2018-03-06T01:32:11.213Z,487.15
2018-03-06T01:34:38.678Z,490.00
2018-03-06T01:37:06.122Z,463.85
2018-03-06T01:39:33.584Z,472.95
2018-03-06T01:42:01.060Z,458.70
2018-03-06T01:44:28.509Z,490.45
2018-03-06T01:46:55.963Z,460.45
2018-03-06T01:49:23.465Z,465.38
2018-03-06T01:51:57.548Z,470.48
2018-03-06T01:54:25.010Z,487.05
2018-03-06T01:56:52.468Z,436.77
2018-03-06T01:59:19.933Z,480.80
2018-03-06T02:01:47.376Z,480.87
2018-03-06T02:04:14.832Z,477.73
2018-03-06T02:06:43.059Z,459.37
2018-03-06T02:09:10.516Z,461.98
2018-03-06T02:11:37.984Z,413.48
2018-03-06T02:14:05.428Z,457.35
2018-03-06T02:16:32.885Z,574.97
2018-03-06T02:19:00.336Z,477.45
2018-03-06T02:21:28.563Z,464.73
2018-03-06T02:23:56.022Z,452.15
2018-03-06T02:26:23.484Z,481.33
2018-03-06T02:28:50.942Z,571.45
2018-03-06T02:31:18.398Z,483.98
2018-03-06T02:33:45.859Z,463.58
2018-03-06T02:36:13.338Z,474.92
2018-03-06T02:38:41.555Z,505.00
2018-03-06T02:41:09.015Z,454.62
2018-03-06T02:43:36.471Z,480.08
2018-03-06T02:46:10.657Z,461.73
2018-03-06T02:48:38.876Z,480.73
2018-03-06T02:51:06.338Z,477.13
2018-03-06T02:53:33.802Z,475.55
2018-03-06T02:56:01.259Z,478.02
2018-03-06T02:58:28.723Z,475.30
2018-03-06T03:00:56.179Z,472.42
2018-03-06T03:03:23.643Z,464.65
2018-03-06T03:05:51.112Z,563.22
2018-03-06T03:08:18.564Z,471.90
2018-03-06T03:10:46.044Z,568.80
2018-03-06T03:13:14.263Z,455.58
2018-03-06T03:15:41.714Z,472.77
2018-03-06T03:18:09.191Z,468.30
2018-03-06T03:20:36.645Z,457.00
2018-03-06T03:23:04.889Z,465.98
2018-03-06T03:25:32.352Z,401.65
2018-03-06T03:27:59.811Z,473.15
2018-03-06T03:30:27.268Z,471.52
2018-03-06T03:32:54.732Z,474.95
2018-03-06T03:35:22.195Z,468.15
2018-03-06T03:37:50.423Z,455.05
2018-03-06T03:40:17.878Z,405.23
2018-03-06T03:42:46.117Z,446.00
2018-03-06T03:45:13.595Z,445.77
2018-03-06T03:47:41.827Z,470.65
2018-03-06T03:50:09.337Z,470.62
2018-03-06T03:52:37.559Z,445.05
2018-03-06T03:55:05.023Z,476.05
2018-03-06T03:57:32.486Z,560.85
2018-03-06T03:59:59.961Z,360.65
2018-03-06T04:02:27.420Z,469.48
2018-03-06T04:04:54.873Z,453.02
2018-03-06T04:07:22.343Z,477.58
2018-03-06T04:09:50.568Z,405.02
2018-03-06T04:12:18.036Z,472.50
2018-03-06T04:14:45.491Z,471.02
2018-03-06T04:17:12.950Z,482.90
2018-03-06T04:19:40.415Z,552.83
2018-03-06T04:22:07.887Z,478.33
2018-03-06T04:24:35.340Z,475.70
2018-03-06T04:27:02.807Z,560.53
2018-03-06T04:29:30.293Z,479.23
2018-03-06T04:31:57.742Z,571.05
2018-03-06T04:34:25.976Z,447.30
2018-03-06T04:36:53.424Z,463.77
2018-03-06T04:39:20.907Z,462.25
2018-03-06T04:41:48.364Z,480.08
2018-03-06T04:44:15.820Z,571.40
2018-03-06T04:46:43.267Z,476.85
2018-03-06T04:49:10.729Z,448.52
2018-03-06T04:51:38.185Z,459.48
2018-03-06T04:54:05.639Z,568.90
2018-03-06T04:56:33.123Z,451.67
2018-03-06T04:59:01.352Z,472.50
2018-03-06T05:01:28.819Z,487.60
2018-03-06T05:03:56.288Z,483.62
2018-03-06T05:06:23.748Z,483.58
2018-03-06T05:08:51.204Z,456.63
2018-03-06T05:11:18.659Z,475.33
2018-03-06T05:13:46.119Z,463.85
2018-03-06T05:16:13.741Z,458.35
2018-03-06T05:18:41.195Z,570.83
2018-03-06T05:21:08.657Z,482.08
2018-03-06T05:23:36.152Z,482.88
2018-03-06T05:26:03.612Z,474.17
2018-03-06T05:28:31.075Z,567.05
2018-03-06T05:30:59.335Z,405.30
2018-03-06T05:33:28.304Z,477.20
2018-03-06T05:35:55.760Z,557.00
2018-03-06T05:38:23.220Z,478.88
2018-03-06T05:40:50.672Z,470.45
2018-03-06T05:43:18.128Z,470.00
2018-03-06T05:45:45.587Z,472.73
2018-03-06T05:48:13.048Z,471.65
2018-03-06T05:50:40.509Z,439.33
2018-03-06T05:53:07.965Z,468.33
2018-03-06T05:55:35.424Z,470.00
2018-03-06T05:58:02.915Z,471.05
2018-03-06T06:00:31.164Z,472.37
2018-03-06T06:02:58.624Z,469.08
2018-03-06T06:05:26.095Z,454.30
2018-03-06T06:07:53.556Z,456.02
2018-03-06T06:10:21.804Z,439.98
2018-03-06T06:12:49.263Z,468.85
2018-03-06T06:15:16.724Z,441.00
2018-03-06T06:17:44.212Z,471.92
2018-03-06T06:20:12.436Z,469.00
2018-03-06T06:22:39.912Z,474.40
2018-03-06T06:25:07.371Z,468.58
2018-03-06T06:27:34.832Z,470.67
2018-03-06T06:30:02.326Z,468.02
2018-03-06T06:32:30.568Z,443.45
2018-03-06T06:34:58.028Z,399.37
2018-03-06T06:37:25.538Z,562.40
2018-03-06T06:39:53.002Z,476.30
2018-03-06T06:42:20.459Z,562.17
2018-03-06T06:44:47.920Z,459.58
2018-03-06T06:47:15.373Z,470.33
2018-03-06T06:49:42.836Z,471.58
2018-03-06T06:52:10.293Z,474.98
2018-03-06T06:54:37.743Z,401.48
2018-03-06T06:57:05.203Z,469.48
2018-03-06T06:59:32.671Z,474.17
2018-03-06T07:02:00.145Z,478.75
2018-03-06T07:04:27.625Z,476.98
2018-03-06T07:06:55.078Z,474.62
2018-03-06T07:09:23.300Z,458.75
2018-03-06T07:11:50.752Z,463.52
2018-03-06T07:14:18.220Z,568.47
2018-03-06T07:16:45.679Z,582.05
2018-03-06T07:19:13.133Z,414.45
2018-03-06T07:21:40.623Z,494.30
2018-03-06T07:24:08.081Z,494.77
2018-03-06T07:26:35.537Z,496.08
2018-03-06T07:29:03.004Z,495.55
2018-03-06T07:31:30.463Z,494.02
2018-03-06T07:33:57.919Z,500.73
2018-03-06T07:36:25.382Z,595.92
2018-03-06T07:38:53.596Z,594.08
2018-03-06T07:41:21.060Z,599.47
2018-03-06T07:43:48.560Z,598.95
2018-03-06T07:46:16.013Z,601.58
2018-03-06T07:48:43.462Z,605.63
2018-03-06T07:51:11.020Z,606.58
2018-03-06T07:53:38.427Z,609.22
2018-03-06T07:56:05.882Z,520.20
2018-03-06T07:58:33.371Z,615.85
2018-03-06T08:01:00.835Z,623.70
2018-03-06T08:03:28.299Z,504.17
2018-03-06T08:05:55.779Z,634.35
2018-03-06T08:08:24.007Z,634.95
2018-03-06T08:10:51.463Z,644.58
2018-03-06T08:13:18.920Z,656.42
2018-03-06T08:15:46.392Z,664.70
2018-03-06T08:18:13.838Z,672.55
2018-03-06T08:20:41.308Z,682.05
2018-03-06T08:23:08.771Z,701.65
2018-03-06T08:25:36.235Z,709.83
2018-03-06T08:28:03.713Z,711.77
2018-03-06T08:30:31.945Z,708.13
2018-03-06T08:32:59.404Z,708.67
2018-03-06T08:35:26.867Z,717.33
2018-03-06T08:37:54.333Z,723.03
2018-03-06T08:40:21.800Z,733.53
2018-03-06T08:42:49.256Z,743.47
2018-03-06T08:45:16.731Z,741.30
2018-03-06T08:47:44.956Z,753.07
2018-03-06T08:50:12.432Z,762.53
2018-03-06T08:52:39.894Z,775.40
2018-03-06T08:55:07.379Z,776.13
2018-03-06T08:57:35.603Z,800.27
2018-03-06T09:00:03.080Z,796.17
2018-03-06T09:02:30.565Z,804.13
2018-03-06T09:04:58.793Z,814.13
2018-03-06T09:07:26.275Z,810.37
2018-03-06T09:09:53.736Z,818.17
2018-03-06T09:12:21.208Z,829.83
2018-03-06T09:14:49.437Z,816.13
2018-03-06T09:17:16.932Z,813.40
2018-03-06T09:19:45.140Z,813.47
2018-03-06T09:22:12.614Z,798.90
2018-03-06T09:24:40.069Z,801.37
2018-03-06T09:27:07.526Z,810.03
2018-03-06T09:29:34.986Z,806.97
2018-03-06T09:32:02.439Z,820.90
2018-03-06T09:34:29.902Z,809.27
2018-03-06T09:36:57.380Z,803.63
2018-03-06T09:39:24.826Z,798.33
2018-03-06T09:41:52.292Z,790.40
2018-03-06T09:44:19.753Z,781.80
2018-03-06T09:46:47.210Z,806.97
2018-03-06T09:49:14.663Z,792.10
2018-03-06T09:51:42.131Z,800.63
2018-03-06T09:54:09.592Z,818.20
2018-03-06T09:56:37.060Z,829.90
2018-03-06T09:59:04.536Z,795.30
2018-03-06T10:01:32.792Z,793.43
2018-03-06T10:04:00.241Z,788.70
2018-03-06T10:06:27.753Z,789.63
2018-03-06T10:08:58.627Z,802.67
2018-03-06T10:11:26.126Z,797.13
2018-03-06T10:13:54.384Z,783.43
2018-03-06T10:16:21.872Z,795.77
2018-03-06T10:18:49.373Z,783.20
2018-03-06T10:21:16.868Z,652.37
2018-03-06T10:23:44.370Z,658.70
2018-03-06T10:26:11.877Z,780.60
2018-03-06T10:28:39.364Z,775.77
2018-03-06T10:31:06.856Z,782.47
2018-03-06T10:33:34.348Z,774.87
2018-03-06T10:36:01.868Z,778.67
2018-03-06T10:38:29.356Z,782.27
2018-03-06T10:40:56.889Z,785.87
2018-03-06T10:43:24.377Z,787.63
2018-03-06T10:45:51.867Z,798.43
2018-03-06T10:48:19.361Z,802.67
2018-03-06T10:50:46.860Z,850.10
2018-03-06T10:53:15.164Z,936.13
2018-03-06T10:55:42.614Z,48.27
2018-03-06T10:58:10.856Z,11.27
2018-03-06T11:00:44.060Z,17.20
2018-03-06T11:03:12.317Z,26.33
2018-03-06T11:05:39.766Z,54.23
2018-03-06T11:08:07.267Z,32.23
2018-03-06T11:10:34.676Z,26.27
2018-03-06T11:13:02.154Z,759.20
2018-03-06T11:15:30.375Z,768.77
2018-03-06T11:17:57.841Z,807.80
2018-03-06T11:20:25.295Z,853.83
2018-03-06T11:22:52.763Z,960.23
2018-03-06T11:25:20.215Z,776.73
2018-03-06T11:27:47.683Z,968.70
2018-03-06T11:30:17.147Z,980.60
2018-03-06T11:32:44.632Z,947.43
2018-03-06T11:35:12.093Z,927.90
2018-03-06T11:37:39.556Z,814.07
2018-03-06T11:40:07.033Z,845.97
2018-03-06T11:42:34.502Z,736.00
2018-03-06T11:45:02.763Z,755.00
2018-03-06T11:47:30.216Z,860.37
2018-03-06T11:49:57.678Z,806.17
2018-03-06T11:52:25.173Z,800.70
2018-03-06T11:54:53.382Z,852.83
2018-03-06T11:57:20.855Z,885.63
2018-03-06T11:59:48.307Z,949.13
2018-03-06T12:02:15.771Z,948.73
2018-03-06T12:04:43.220Z,955.97
2018-03-06T12:07:10.726Z,952.30
2018-03-06T12:09:38.936Z,931.73
2018-03-06T12:12:06.399Z,940.73
2018-03-06T12:14:33.876Z,812.50
2018-03-06T12:17:01.340Z,971.20
2018-03-06T12:19:28.793Z,972.77
2018-03-06T12:21:56.259Z,904.30
2018-03-06T12:24:23.722Z,816.77
2018-03-06T12:26:51.192Z,780.23
2018-03-06T12:29:19.412Z,792.00
2018-03-06T12:31:46.967Z,760.57
2018-03-06T12:34:14.428Z,876.17
2018-03-06T12:36:41.897Z,783.20
2018-03-06T12:39:09.349Z,757.37
2018-03-06T12:41:36.846Z,766.47
2018-03-06T12:44:05.065Z,833.60
2018-03-06T12:46:32.560Z,920.33
2018-03-06T12:49:00.017Z,898.93
2018-03-06T12:51:27.493Z,791.23
2018-03-06T12:53:55.716Z,810.67
2018-03-06T12:56:23.177Z,912.83
2018-03-06T12:58:50.645Z,874.60
2018-03-06T13:01:18.109Z,894.80
2018-03-06T13:03:45.585Z,808.37
2018-03-06T13:06:13.041Z,748.97
2018-03-06T13:08:40.498Z,757.47
2018-03-06T13:11:08.735Z,751.93
2018-03-06T13:13:36.192Z,660.50
2018-03-06T13:16:03.673Z,682.00
2018-03-06T13:18:31.149Z,747.90
2018-03-06T13:20:58.599Z,702.73
2018-03-06T13:23:26.063Z,683.20
2018-03-06T13:25:53.511Z,693.20
2018-03-06T13:28:20.978Z,789.27
2018-03-06T13:30:49.206Z,747.23
2018-03-06T13:33:16.686Z,759.63
2018-03-06T13:35:44.140Z,979.57
2018-03-06T13:38:11.604Z,996.63
2018-03-06T13:40:39.060Z,889.13
2018-03-06T13:43:06.526Z,906.07
2018-03-06T13:45:33.988Z,884.20
2018-03-06T13:48:01.461Z,935.47
2018-03-06T13:50:29.705Z,820.67
2018-03-06T13:52:57.167Z,939.40
2018-03-06T13:55:24.627Z,943.37
2018-03-06T13:57:52.107Z,918.73
2018-03-06T14:00:20.336Z,993.77
2018-03-06T14:02:47.812Z,894.80
2018-03-06T14:05:15.271Z,896.20
2018-03-06T14:07:42.731Z,813.93
2018-03-06T14:10:10.204Z,967.20
2018-03-06T14:12:37.674Z,948.60
2018-03-06T14:15:05.897Z,960.73
2018-03-06T14:17:33.368Z,960.90
2018-03-06T14:20:00.819Z,952.70
2018-03-06T14:22:28.295Z,848.13
2018-03-06T14:24:55.765Z,751.47
2018-03-06T14:27:23.987Z,962.00
2018-03-06T14:29:51.440Z,803.73
2018-03-06T14:32:18.914Z,790.70
2018-03-06T14:34:46.364Z,798.43
2018-03-06T14:37:13.844Z,785.03
2018-03-06T14:39:41.304Z,792.23
2018-03-06T14:42:08.776Z,506.53
2018-03-06T14:44:36.991Z,526.77
2018-03-06T14:47:04.456Z,50.17
2018-03-06T14:49:31.919Z,523.60
2018-03-06T14:51:59.360Z,97.80
2018-03-06T14:54:26.817Z,58.20
2018-03-06T14:56:54.276Z,138.23
2018-03-06T14:59:21.731Z,33.83
2018-03-06T15:01:49.193Z,46.87
2018-03-06T15:04:16.657Z,35.90
2018-03-06T15:06:44.132Z,282.40
2018-03-06T15:09:11.587Z,44.07
2018-03-06T15:11:39.039Z,34.40
2018-03-06T15:14:06.527Z,67.77
2018-03-06T15:16:33.988Z,36.00
2018-03-06T15:19:02.210Z,28.37
2018-03-06T15:21:29.662Z,38.13
2018-03-06T15:23:57.123Z,30.37
2018-03-06T15:26:24.577Z,25.60
2018-03-06T15:28:52.047Z,25.03
2018-03-06T15:31:19.505Z,20.17
2018-03-06T15:33:46.959Z,20.23
2018-03-06T15:36:14.419Z,24.97
2018-03-06T15:38:41.917Z,22.67
2018-03-06T15:41:09.352Z,14.90
2018-03-06T15:43:36.831Z,31.43
2018-03-06T15:46:05.049Z,24.90
2018-03-06T15:48:32.508Z,24.33
2018-03-06T15:50:59.980Z,15.67
2018-03-06T15:53:27.436Z,23.03
2018-03-06T15:55:54.896Z,12.77
2018-03-06T15:58:22.369Z,21.13
2018-03-06T16:00:49.912Z,30.43
2018-03-06T16:03:17.381Z,17.37
2018-03-06T16:05:44.836Z,13.93
2018-03-06T16:08:12.311Z,19.60
2018-03-06T16:10:40.561Z,17.70
2018-03-06T16:13:08.788Z,27.00
2018-03-06T16:15:36.264Z,24.12
2018-03-06T16:18:03.716Z,26.37
2018-03-06T16:20:31.167Z,25.73
2018-03-06T16:22:58.660Z,12.45
2018-03-06T16:25:26.119Z,22.90
2018-03-06T16:27:53.577Z,39.05
2018-03-06T16:30:21.041Z,24.87
2018-03-06T16:32:48.509Z,22.85
2018-03-06T16:35:15.977Z,35.83
2018-03-06T16:37:44.232Z,18.85
2018-03-06T16:40:11.685Z,52.90
2018-03-06T16:42:40.640Z,20.62
2018-03-06T16:45:08.096Z,62.80
2018-03-06T16:47:35.553Z,18.67
2018-03-06T16:50:03.014Z,33.40
2018-03-06T16:52:30.469Z,98.45
2018-03-06T16:54:57.930Z,101.18
2018-03-06T16:57:25.373Z,86.63
2018-03-06T16:59:53.590Z,46.10
2018-03-06T17:02:21.039Z,62.72
2018-03-06T17:04:48.560Z,27.77
2018-03-06T17:07:15.982Z,87.15
2018-03-06T17:09:43.444Z,103.25
2018-03-06T17:12:11.664Z,144.40
2018-03-06T17:14:39.120Z,88.87
2018-03-06T17:17:06.579Z,104.63
2018-03-06T17:19:34.046Z,59.67
2018-03-06T17:22:01.496Z,88.00
2018-03-06T17:24:28.951Z,131.73
2018-03-06T17:26:56.397Z,47.67
2018-03-06T17:29:23.867Z,173.95
2018-03-06T17:31:51.312Z,66.12
2018-03-06T17:34:18.773Z,236.50
2018-03-06T17:36:46.218Z,79.43
2018-03-06T17:39:13.688Z,89.50
2018-03-06T17:41:41.136Z,231.40
2018-03-06T17:44:08.599Z,87.80
2018-03-06T17:46:36.134Z,403.75
2018-03-06T17:49:04.352Z,90.95
2018-03-06T17:51:31.818Z,292.48
2018-03-06T17:53:59.285Z,322.52
2018-03-06T17:56:26.738Z,88.68
2018-03-06T17:58:54.264Z,388.60
2018-03-06T18:01:21.710Z,203.07
2018-03-06T18:03:49.168Z,403.25
2018-03-06T18:06:16.668Z,293.67
2018-03-06T18:08:44.128Z,476.20
2018-03-06T18:11:11.583Z,289.80
2018-03-06T18:13:39.074Z,489.13
2018-03-06T18:16:07.285Z,219.02
2018-03-06T18:18:34.733Z,324.37
2018-03-06T18:21:02.194Z,390.40
2018-03-06T18:23:29.639Z,317.10
2018-03-06T18:25:57.104Z,159.45
2018-03-06T18:28:25.315Z,289.65
2018-03-06T18:30:52.788Z,347.30
2018-03-06T18:33:20.223Z,73.87
2018-03-06T18:35:47.700Z,27.62
2018-03-06T18:38:15.140Z,111.22
2018-03-06T18:40:42.604Z,207.73
2018-03-06T18:43:10.115Z,295.20
2018-03-06T18:45:37.580Z,423.58
2018-03-06T18:48:05.036Z,626.25
2018-03-06T18:50:44.562Z,393.48
2018-03-06T18:53:12.005Z,275.38
2018-03-06T18:55:40.231Z,337.05
2018-03-06T18:58:07.685Z,589.22
2018-03-06T19:14:03.435Z,85.22
2018-03-06T19:16:30.898Z,72.80
2018-03-06T19:18:58.499Z,38.00
2018-03-06T19:21:26.035Z,11.70
2018-03-06T19:23:53.827Z,9.90
2018-03-06T19:26:21.307Z,18.62
2018-03-06T19:28:48.982Z,16.95
2018-03-06T19:31:16.839Z,78.10
2018-03-06T19:33:44.927Z,132.60
2018-03-06T19:36:12.671Z,24.60
2018-03-06T19:38:40.436Z,12.60
2018-03-06T19:41:08.056Z,20.08
2018-03-06T19:43:35.631Z,106.87
2018-03-06T19:46:03.332Z,28.08
2018-03-06T19:48:30.780Z,9.30
2018-03-06T19:50:58.344Z,380.52
2018-03-06T19:53:26.098Z,247.98
2018-03-06T19:55:54.172Z,18.25
2018-03-06T19:58:22.247Z,17.50
2018-03-06T20:00:49.884Z,15.20
2018-03-06T20:03:17.645Z,250.73
2018-03-06T20:05:45.248Z,117.82
2018-03-06T20:08:12.692Z,12.02
2018-03-06T20:10:40.136Z,111.35
2018-03-06T20:13:07.608Z,504.77
2018-03-06T20:15:35.368Z,433.30
2018-03-06T20:18:02.842Z,7.12
2018-03-06T20:20:30.286Z,212.55
2018-03-06T20:22:57.730Z,353.67
2018-03-06T20:25:31.447Z,202.20
2018-03-06T20:27:58.899Z,183.23
2018-03-06T20:30:32.271Z,80.20
2018-03-06T20:33:05.358Z,225.80
2018-03-06T20:35:33.023Z,548.83
2018-03-06T20:38:00.478Z,194.70
2018-03-06T20:40:32.190Z,89.03
2018-03-06T20:43:01.023Z,568.65
2018-03-06T20:45:34.362Z,500.62
2018-03-06T20:48:02.079Z,72.93
2018-03-06T20:50:29.788Z,9.50
2018-03-06T20:53:03.274Z,33.40
2018-03-06T20:55:30.927Z,27.73
2018-03-06T20:57:58.559Z,30.95
2018-03-06T21:00:25.998Z,12.00
2018-03-06T21:02:54.834Z,8.50
2018-03-06T21:05:22.636Z,22.52
2018-03-06T21:07:50.405Z,15.80
2018-03-06T21:10:17.897Z,10.68
2018-03-06T21:12:45.550Z,21.83
2018-03-06T21:15:13.351Z,363.87
2018-03-06T21:17:40.805Z,18.45
2018-03-06T21:20:08.250Z,79.90
2018-03-06T21:22:35.918Z,10.65
2018-03-06T21:25:03.434Z,17.58
2018-03-06T21:27:31.131Z,11.30
2018-03-06T21:29:58.618Z,8.13
2018-03-06T21:32:26.385Z,149.57
2018-03-06T21:34:55.158Z,18.58
2018-03-06T21:37:23.100Z,9.98
2018-03-06T21:39:50.543Z,13.05
2018-03-06T21:42:18.139Z,10.50
2018-03-06T21:44:45.909Z,360.27
2018-03-06T21:47:13.548Z,16.05
2018-03-06T21:49:41.327Z,9.43
2018-03-06T21:52:09.048Z,8.45
2018-03-06T21:54:37.476Z,8.15
2018-03-06T21:57:05.206Z,15.75
2018-03-06T21:59:32.698Z,12.90
2018-03-06T22:02:00.179Z,18.27
2018-03-06T22:04:28.051Z,10.48
2018-03-06T22:06:55.471Z,12.23
2018-03-06T22:09:22.912Z,9.77
2018-03-06T22:11:50.471Z,9.50
2018-03-06T22:14:18.015Z,10.82
2018-03-06T22:16:45.504Z,30.00
2018-03-06T22:19:12.967Z,9.57
2018-03-06T22:21:40.531Z,11.50
2018-03-06T22:24:08.159Z,367.17
2018-03-06T22:26:35.608Z,15.75
2018-03-06T22:29:03.066Z,9.45
2018-03-06T22:31:30.662Z,15.75
2018-03-06T22:33:58.424Z,12.50
2018-03-06T22:36:26.214Z,12.52
2018-03-06T22:38:54.036Z,11.68
2018-03-06T22:41:21.627Z,10.15
2018-03-06T22:43:49.072Z,9.68
2018-03-06T22:46:16.778Z,100.78
2018-03-06T22:48:45.504Z,12.98
2018-03-06T22:51:12.983Z,21.75
2018-03-06T22:53:40.451Z,13.43
2018-03-06T22:56:07.902Z,17.67
2018-03-06T22:58:35.363Z,17.60
2018-03-06T23:01:02.809Z,15.57
2018-03-06T23:03:30.266Z,23.38
2018-03-06T23:05:58.441Z,16.15
2018-03-06T23:08:26.191Z,9.20
2018-03-06T23:10:53.836Z,10.77
2018-03-06T23:13:21.601Z,11.90
2018-03-06T23:15:49.043Z,12.13
2018-03-06T23:18:16.859Z,12.95
2018-03-06T23:20:44.299Z,13.73
2018-03-06T23:23:12.089Z,10.57
2018-03-06T23:25:39.822Z,13.00
2018-03-06T23:28:07.559Z,11.95
2018-03-06T23:30:34.991Z,13.35
2018-03-06T23:33:02.440Z,16.15
2018-03-06T23:35:30.126Z,12.98
2018-03-06T23:37:57.842Z,15.30
2018-03-06T23:40:25.467Z,10.85
2018-03-06T23:42:53.064Z,10.10
2018-03-06T23:45:20.827Z,11.73
2018-03-06T23:47:48.586Z,11.15
2018-03-06T23:50:16.227Z,11.85
2018-03-06T23:52:43.992Z,11.73
2018-03-06T23:55:11.515Z,10.43
2018-03-06T23:57:39.607Z,14.68
